Time;durP1;ratioP1;P1;durP2;ratioP2;P2;SDS_P1;SDS_P2;PMS_P1;PMS_P2;Temp;Humidity;BMP_temperature;BMP_pressure;BME280_temperature;BME280_humidity;BME280_pressure;Samples;Min_cycle;Max_cycle;Signal;HPM_P1;HPM_P2
2022/04/18 00:00:55;;;;;;;6.23;3.67;;;6.20;19.70;;;;;;8248748;28;20244;-64
2022/04/18 00:04:55;;;;;;;6.43;4.27;;;6.20;85.80;;;;;;8253388;28;20905;-65
2022/04/18 00:08:56;;;;;;;6.37;3.97;;;6.20;99.90;;;;;;8254553;28;20192;-64
2022/04/18 00:12:57;;;;;;;6.77;4.17;;;6.20;22.70;;;;;;8251230;28;20207;-65
2022/04/18 00:16:58;;;;;;;6.57;4.37;;;6.30;1.00;;;;;;8255619;28;20188;-64
2022/04/18 00:20:59;;;;;;;6.37;3.97;;;6.30;99.90;;;;;;8254918;28;20216;-64
2022/04/18 00:25:00;;;;;;;8.00;4.33;;;6.30;1.00;;;;;;8251540;28;20200;-64
2022/04/18 00:29:01;;;;;;;6.63;3.93;;;6.30;1.00;;;;;;8252823;28;20203;-64
2022/04/18 00:33:01;;;;;;;5.43;3.93;;;6.30;99.90;;;;;;8249232;28;20270;-64
2022/04/18 00:37:02;;;;;;;5.83;3.97;;;6.30;99.90;;;;;;8251884;28;20234;-64
2022/04/18 00:41:03;;;;;;;7.40;4.40;;;6.30;99.90;;;;;;8247204;28;20267;-64
2022/04/18 00:45:04;;;;;;;6.73;4.27;;;6.30;51.70;;;;;;8252003;28;20184;-64
2022/04/18 00:49:05;;;;;;;6.80;4.50;;;6.20;99.90;;;;;;8248165;28;20188;-64
2022/04/18 00:53:07;;;;;;;6.80;4.03;;;6.20;99.90;;;;;;8263875;28;20198;-64
2022/04/18 00:57:11;;;;;;;7.03;4.43;;;6.20;1.00;;;;;;8254960;28;20191;-64
2022/04/18 01:01:13;;;;;;;6.73;4.37;;;6.00;1.00;;;;;;8259864;28;20219;-64
2022/04/18 01:05:14;;;;;;;6.90;4.30;;;5.90;99.90;;;;;;8253562;28;20269;-64
2022/04/18 01:09:15;;;;;;;7.13;4.17;;;5.80;99.90;;;;;;8257177;28;20199;-64
2022/04/18 01:13:16;;;;;;;6.60;4.20;;;5.80;99.90;;;;;;8247372;28;20266;-64
2022/04/18 01:17:17;;;;;;;7.43;3.90;;;5.70;99.90;;;;;;8248890;28;20286;-65
2022/04/18 01:21:20;;;;;;;5.73;3.77;;;5.60;99.90;;;;;;8249744;28;20354;-64
2022/04/18 01:29:45;;;;;;;5.90;3.93;;;5.50;1.00;;;;;;8254612;28;20273;-64
2022/04/18 01:33:46;;;;;;;6.20;4.10;;;5.50;99.90;;;;;;8250041;28;20192;-64
2022/04/18 01:37:46;;;;;;;5.97;3.57;;;5.50;99.90;;;;;;8262264;28;20209;-64
2022/04/18 01:41:47;;;;;;;6.90;4.23;;;5.40;99.90;;;;;;8251918;28;20496;-64
2022/04/18 01:45:48;;;;;;;5.37;3.40;;;5.50;99.90;;;;;;8255854;28;20195;-64
2022/04/18 01:49:49;;;;;;;4.10;3.20;;;5.50;1.00;;;;;;8249742;28;20191;-64
2022/04/18 01:53:49;;;;;;;5.47;3.60;;;5.50;1.00;;;;;;8248315;28;20278;-64
2022/04/18 01:57:50;;;;;;;6.57;4.07;;;5.50;99.90;;;;;;8250224;28;20199;-64
2022/04/18 02:01:51;;;;;;;5.53;3.70;;;5.40;73.40;;;;;;8251393;28;20307;-64
2022/04/18 02:05:55;;;;;;;5.47;3.80;;;5.30;99.90;;;;;;8262514;28;20306;-64
2022/04/18 02:09:56;;;;;;;5.73;3.73;;;5.20;1.00;;;;;;8248511;28;20195;-64
2022/04/18 02:13:58;;;;;;;10.90;5.63;;;5.20;99.90;;;;;;8250283;28;20295;-70
2022/04/18 02:17:59;;;;;;;9.60;4.63;;;5.20;99.90;;;;;;8260796;28;20184;-65
2022/04/18 02:21:59;;;;;;;7.00;4.63;;;5.20;99.90;;;;;;8253700;28;20217;-64
2022/04/18 02:26:00;;;;;;;5.43;3.80;;;5.10;99.90;;;;;;8244691;28;20192;-64
2022/04/18 02:30:01;;;;;;;5.90;3.40;;;5.00;99.90;;;;;;8248766;28;20199;-64
2022/04/18 02:34:02;;;;;;;5.17;3.60;;;4.90;99.90;;;;;;8250049;28;20205;-64
2022/04/18 02:38:03;;;;;;;5.00;3.30;;;4.80;99.90;;;;;;8258489;28;20287;-65
2022/04/18 02:42:04;;;;;;;4.70;3.23;;;4.70;99.90;;;;;;8257101;28;20226;-64
2022/04/18 02:46:05;;;;;;;5.37;3.93;;;4.60;99.90;;;;;;8265325;28;20195;-64
2022/04/18 02:50:07;;;;;;;5.97;3.07;;;4.50;1.00;;;;;;8255537;28;20249;-65
2022/04/18 02:54:08;;;;;;;4.87;3.80;;;4.40;98.80;;;;;;8250041;28;20200;-64
2022/04/18 02:58:08;;;;;;;6.93;4.20;;;4.30;99.90;;;;;;8261066;28;20226;-64
2022/04/18 03:02:09;;;;;;;7.17;4.50;;;4.20;99.90;;;;;;8256149;28;20310;-64
2022/04/18 03:06:10;;;;;;;6.77;3.37;;;4.00;99.90;;;;;;8255004;28;20217;-64
2022/04/18 03:10:11;;;;;;;6.10;3.93;;;3.90;99.90;;;;;;8248700;28;20191;-64
2022/04/18 03:14:12;;;;;;;4.47;3.60;;;3.70;99.90;;;;;;8256800;28;20194;-64
2022/04/18 03:18:13;;;;;;;4.50;3.10;;;3.50;99.90;;;;;;8252123;28;20216;-64
2022/04/18 03:22:14;;;;;;;4.07;2.93;;;3.30;1.00;;;;;;8263469;28;20205;-64
2022/04/18 03:26:15;;;;;;;4.30;2.80;;;3.20;1.00;;;;;;8255446;28;20184;-64
2022/04/18 03:30:15;;;;;;;4.00;2.83;;;3.10;1.00;;;;;;8259386;28;20204;-64
2022/04/18 03:34:16;;;;;;;3.73;2.80;;;2.90;1.00;;;;;;8256238;28;20192;-67
2022/04/18 03:42:38;;;;;;;5.57;3.10;;;2.70;35.10;;;;;;8254721;28;20234;-64
2022/04/18 03:46:39;;;;;;;7.13;4.23;;;2.50;99.90;;;;;;8253858;28;20262;-64
2022/04/18 03:50:40;;;;;;;5.47;3.90;;;2.50;99.90;;;;;;8261554;28;20202;-64
2022/04/18 03:54:40;;;;;;;10.60;7.83;;;2.50;99.90;;;;;;8275304;28;20494;-64
2022/04/18 03:58:41;;;;;;;10.10;5.60;;;2.40;99.90;;;;;;8256005;28;20401;-64
2022/04/18 04:02:43;;;;;;;7.17;4.37;;;2.40;99.90;;;;;;8254409;28;20370;-64
2022/04/18 04:06:44;;;;;;;6.03;4.30;;;2.40;99.90;;;;;;8269754;28;20219;-64
2022/04/18 04:10:44;;;;;;;4.97;3.53;;;2.30;99.90;;;;;;8266390;28;20190;-64
2022/04/18 04:14:45;;;;;;;4.77;3.30;;;2.20;99.90;;;;;;8259326;28;20198;-64
2022/04/18 04:18:47;;;;;;;4.73;3.43;;;2.40;99.90;;;;;;8273623;28;20300;-63
2022/04/18 04:22:49;;;;;;;5.17;3.43;;;2.80;99.90;;;;;;8259389;28;20221;-64
2022/04/18 04:26:50;;;;;;;6.17;3.90;;;3.30;99.90;;;;;;8240384;28;20196;-64
2022/04/18 04:30:50;;;;;;;5.43;3.83;;;3.60;99.90;;;;;;8260602;28;20202;-64
2022/04/18 04:34:51;;;;;;;6.00;4.03;;;3.70;99.90;;;;;;8252661;28;20188;-64
2022/04/18 04:38:52;;;;;;;6.10;3.60;;;3.70;1.00;;;;;;8256260;28;20255;-64
2022/04/18 04:42:53;;;;;;;6.10;3.60;;;3.70;1.00;;;;;;8251046;28;20568;-64
2022/04/18 04:46:53;;;;;;;6.20;3.60;;;3.60;99.90;;;;;;8251087;28;20210;-66
2022/04/18 04:50:54;;;;;;;5.10;3.57;;;3.40;99.90;;;;;;8254283;28;20202;-64
2022/04/18 04:54:55;;;;;;;5.27;3.63;;;3.40;1.00;;;;;;8249508;28;20188;-64
2022/04/18 04:58:56;;;;;;;5.90;3.93;;;3.30;99.90;;;;;;8250954;28;20243;-64
2022/04/18 05:02:57;;;;;;;4.13;3.40;;;3.20;99.90;;;;;;8255025;28;20218;-64
2022/04/18 05:06:58;;;;;;;5.53;3.90;;;3.10;99.90;;;;;;8248375;28;20196;-64
2022/04/18 05:11:00;;;;;;;6.93;4.53;;;3.10;99.90;;;;;;8253953;28;20202;-65
2022/04/18 05:15:05;;;;;;;6.23;3.87;;;3.10;1.00;;;;;;8257575;28;20188;-65
2022/04/18 05:19:06;;;;;;;5.83;3.80;;;3.20;1.00;;;;;;8257900;28;20250;-65
2022/04/18 05:23:07;;;;;;;7.70;4.30;;;3.30;1.00;;;;;;8257217;28;20222;-64
2022/04/18 05:27:08;;;;;;;6.60;4.03;;;3.40;99.90;;;;;;8248622;28;20191;-64
2022/04/18 05:31:09;;;;;;;6.73;4.30;;;3.50;1.00;;;;;;8256737;28;20223;-64
2022/04/18 05:35:10;;;;;;;9.60;5.20;;;3.60;99.90;;;;;;8251539;28;20238;-64
2022/04/18 05:39:11;;;;;;;8.93;6.43;;;3.70;91.10;;;;;;8256030;28;20213;-64
2022/04/18 05:43:11;;;;;;;8.57;5.30;;;3.90;1.00;;;;;;8249665;28;20302;-64
2022/04/18 05:47:12;;;;;;;12.43;7.27;;;4.10;1.00;;;;;;8253280;28;20204;-64
2022/04/18 05:51:13;;;;;;;12.33;8.43;;;4.30;1.00;;;;;;8254442;28;20207;-64
2022/04/18 05:55:14;;;;;;;16.80;8.23;;;4.50;1.00;;;;;;8249763;28;20631;-64
2022/04/18 05:59:15;;;;;;;9.77;5.83;;;4.70;20.50;;;;;;8250374;28;20191;-64
2022/04/18 06:03:16;;;;;;;8.10;6.07;;;4.80;1.00;;;;;;8253184;28;20237;-63
2022/04/18 06:07:17;;;;;;;11.10;5.97;;;5.00;99.90;;;;;;8250383;28;20226;-63
2022/04/18 06:11:17;;;;;;;12.70;7.20;;;5.20;99.90;;;;;;8256072;28;20187;-63
2022/04/18 06:15:18;;;;;;;11.97;5.70;;;5.30;99.90;;;;;;8257523;28;20190;-64
2022/04/18 06:19:19;;;;;;;9.77;5.53;;;5.40;99.90;;;;;;8262018;28;20323;-64
2022/04/18 06:23:20;;;;;;;11.43;5.83;;;5.50;99.90;;;;;;8259776;28;20265;-63
2022/04/18 06:27:21;;;;;;;9.93;6.20;;;5.70;99.90;;;;;;8253453;28;20211;-64
2022/04/18 06:31:21;;;;;;;9.57;5.63;;;5.80;99.90;;;;;;8241116;28;20202;-64
2022/04/18 06:35:22;;;;;;;8.80;6.07;;;6.00;99.90;;;;;;8251487;28;20411;-64
2022/04/18 06:39:23;;;;;;;9.83;6.50;;;6.10;1.00;;;;;;8251490;28;20238;-65
2022/04/18 06:43:24;;;;;;;12.97;8.13;;;6.30;1.00;;;;;;8258461;28;20219;-64
2022/04/18 06:47:25;;;;;;;9.27;4.90;;;6.40;1.00;;;;;;8248822;28;20278;-64
2022/04/18 06:51:25;;;;;;;11.20;5.97;;;6.70;1.00;;;;;;8245548;28;20315;-63
2022/04/18 06:55:26;;;;;;;8.70;5.17;;;6.90;1.00;;;;;;8244569;28;20191;-64
2022/04/18 06:59:28;;;;;;;6.50;4.67;;;7.00;99.90;;;;;;8251592;28;20445;-65
2022/04/18 07:03:29;;;;;;;8.10;5.07;;;7.00;1.00;;;;;;8255672;28;20211;-64
2022/04/18 07:07:30;;;;;;;7.03;4.27;;;7.20;99.90;;;;;;8251045;28;20241;-64
2022/04/18 07:11:31;;;;;;;6.00;3.63;;;7.30;99.90;;;;;;8255380;28;20188;-62
2022/04/18 07:15:34;;;;;;;5.60;2.77;;;7.20;99.90;;;;;;8261306;28;20250;-63
2022/04/18 07:19:35;;;;;;;29.43;11.47;;;7.30;99.90;;;;;;8255159;28;20188;-63
2022/04/18 07:23:36;;;;;;;5.17;2.63;;;7.50;99.90;;;;;;8254313;28;20219;-62
2022/04/18 07:27:37;;;;;;;3.23;2.20;;;7.60;99.90;;;;;;8251818;28;20195;-62
2022/04/18 07:31:38;;;;;;;8.67;3.90;;;7.60;99.90;;;;;;8255315;28;20202;-62
2022/04/18 07:35:38;;;;;;;6.50;2.07;;;7.80;99.90;;;;;;8257056;28;20294;-66
2022/04/18 07:39:39;;;;;;;12.90;5.37;;;8.00;71.00;;;;;;8253521;28;20212;-62
2022/04/18 07:43:41;;;;;;;6.43;2.77;;;8.30;49.10;;;;;;8250765;28;20208;-61
2022/04/18 07:47:42;;;;;;;2.87;2.10;;;8.50;45.90;;;;;;8259667;28;20230;-63
2022/04/18 07:51:42;;;;;;;4.47;2.53;;;8.70;46.00;;;;;;8250099;28;20195;-61
2022/04/18 07:55:43;;;;;;;3.30;1.73;;;8.90;49.30;;;;;;8249593;28;20591;-62
2022/04/18 07:59:44;;;;;;;4.47;1.70;;;9.00;54.50;;;;;;8253403;28;20188;-62
2022/04/18 08:03:46;;;;;;;3.97;2.30;;;9.00;48.60;;;;;;8251241;28;20216;-60
2022/04/18 08:07:46;;;;;;;2.93;1.50;;;9.10;26.60;;;;;;8253026;28;20184;-61
2022/04/18 08:11:47;;;;;;;1.77;1.47;;;9.30;25.30;;;;;;8255214;28;20200;-62
2022/04/18 08:15:48;;;;;;;8.47;4.07;;;9.50;19.00;;;;;;8251454;28;20195;-59
2022/04/18 08:19:49;;;;;;;1.83;1.27;;;9.70;15.30;;;;;;8259644;28;20188;-60
2022/04/18 08:23:51;;;;;;;6.83;4.40;;;9.90;6.80;;;;;;8250729;28;20284;-62
2022/04/18 08:27:51;;;;;;;9.07;3.33;;;10.20;1.00;;;;;;8249803;28;20254;-60
2022/04/18 08:31:52;;;;;;;9.50;4.33;;;10.20;1.00;;;;;;8254660;28;20187;-62
2022/04/18 08:35:53;;;;;;;4.43;2.40;;;10.30;1.00;;;;;;8252099;28;20492;-61
2022/04/18 08:39:54;;;;;;;2.60;2.00;;;10.40;1.00;;;;;;8252435;28;20278;-61
2022/04/18 08:43:55;;;;;;;5.10;3.20;;;10.40;1.00;;;;;;8252587;28;20222;-60
2022/04/18 08:56:35;;;;;;;2.83;1.97;;;10.70;1.00;;;;;;8248522;28;20243;-68
2022/04/18 09:00:36;;;;;;;2.57;1.80;;;10.70;1.00;;;;;;8257805;28;20312;-61
2022/04/18 09:04:37;;;;;;;4.50;3.20;;;10.60;1.00;;;;;;8255153;28;20293;-60
2022/04/18 09:08:52;;;;;;;6.00;4.20;;;10.50;1.00;;;;;;8249789;28;20197;-61
2022/04/18 09:13:01;;;;;;;4.00;2.23;;;10.50;1.00;;;;;;8256739;28;20257;-60
2022/04/18 09:17:02;;;;;;;3.57;2.50;;;10.60;1.00;;;;;;8246356;28;20187;-62
2022/04/18 09:21:05;;;;;;;7.73;5.40;;;10.80;1.00;;;;;;8246451;28;20190;-60
2022/04/18 09:25:15;;;;;;;4.23;2.87;;;10.90;1.00;;;;;;8250979;28;20244;-67
2022/04/18 09:29:17;;;;;;;7.13;5.90;;;11.00;1.00;;;;;;8246484;28;20209;-61
2022/04/18 09:33:18;;;;;;;7.40;3.00;;;11.00;1.00;;;;;;8247732;28;20197;-62
2022/04/18 09:37:19;;;;;;;2.30;1.83;;;11.10;1.00;;;;;;8249301;28;20213;-61
2022/04/18 09:41:25;;;;;;;3.50;2.13;;;11.20;1.00;;;;;;8252841;28;20305;-60
2022/04/18 09:45:27;;;;;;;15.83;4.20;;;11.00;1.00;;;;;;8256963;28;20398;-62
2022/04/18 09:49:36;;;;;;;21.37;9.17;;;11.30;1.00;;;;;;8260535;28;20187;-62
2022/04/18 09:53:40;;;;;;;3.40;2.30;;;11.50;1.00;;;;;;8237508;28;20195;-71
2022/04/18 09:57:46;;;;;;;4.37;2.57;;;11.50;1.00;;;;;;8254327;28;20201;-59
2022/04/18 10:01:47;;;;;;;3.90;2.50;;;11.60;1.00;;;;;;8254484;28;20214;-61
2022/04/18 10:05:49;;;;;;;4.33;2.63;;;11.80;1.00;;;;;;8251655;28;20286;-63
2022/04/18 10:09:52;;;;;;;4.30;2.50;;;12.00;1.00;;;;;;8248176;28;20202;-62
2022/04/18 10:13:53;;;;;;;4.00;2.90;;;11.60;1.00;;;;;;8255846;28;20263;-62
2022/04/18 10:17:55;;;;;;;4.73;3.13;;;11.40;1.00;;;;;;8253009;28;20364;-61
2022/04/18 10:22:25;;;;;;;3.00;2.43;;;11.70;1.00;;;;;;8252011;28;20214;-62
2022/04/18 10:26:45;;;;;;;3.40;2.53;;;11.30;1.00;;;;;;8258771;28;20205;-61
2022/04/18 10:30:57;;;;;;;3.63;2.47;;;11.10;1.00;;;;;;8248471;28;20212;-62
2022/04/18 10:35:04;;;;;;;7.80;3.40;;;11.50;1.00;;;;;;8250357;28;20265;-65
2022/04/18 10:39:07;;;;;;;4.00;2.57;;;12.00;1.00;;;;;;8246377;28;20235;-61
2022/04/18 10:43:11;;;;;;;4.70;2.50;;;12.30;1.00;;;;;;8247707;28;20214;-62
2022/04/18 10:47:12;;;;;;;4.63;2.77;;;12.50;1.00;;;;;;8246728;28;20180;-62
2022/04/18 10:51:28;;;;;;;5.53;3.23;;;12.70;1.00;;;;;;8249575;28;20210;-60
2022/04/18 10:55:29;;;;;;;5.73;3.80;;;12.80;1.00;;;;;;8260173;28;20187;-61
2022/04/18 10:59:32;;;;;;;4.73;2.83;;;12.90;1.00;;;;;;8259711;28;20184;-60
2022/04/18 11:03:36;;;;;;;2.87;2.50;;;13.10;1.00;;;;;;8245663;28;20560;-65
2022/04/18 11:07:41;;;;;;;4.30;2.73;;;13.10;1.00;;;;;;8241654;28;20279;-60
2022/04/18 11:12:00;;;;;;;9.23;5.17;;;12.80;1.00;;;;;;8254569;28;20192;-60
2022/04/18 11:16:24;;;;;;;2.97;2.50;;;12.90;1.00;;;;;;8243570;28;20193;-60
2022/04/18 11:20:34;;;;;;;4.00;2.87;;;13.10;1.00;;;;;;8247954;28;20203;-62
2022/04/18 11:24:35;;;;;;;3.20;2.50;;;12.80;1.00;;;;;;8262918;28;20218;-63
2022/04/18 11:28:41;;;;;;;4.37;3.13;;;12.70;1.00;;;;;;8251835;28;20195;-59
2022/04/18 11:32:46;;;;;;;8.63;4.77;;;12.80;1.00;;;;;;8248337;28;20196;-61
2022/04/18 11:36:48;;;;;;;4.83;2.73;;;12.90;1.00;;;;;;8260341;28;20191;-60
2022/04/18 11:40:49;;;;;;;2.77;2.23;;;12.90;1.00;;;;;;8253048;28;20211;-62
2022/04/18 11:44:52;;;;;;;3.53;2.80;;;12.90;1.00;;;;;;8258248;28;20618;-62
2022/04/18 11:48:54;;;;;;;3.30;2.40;;;13.00;1.00;;;;;;8254349;28;20195;-60
2022/04/18 11:53:20;;;;;;;5.63;3.10;;;13.20;1.00;;;;;;8259226;28;20230;-63
2022/04/18 11:57:21;;;;;;;4.17;2.53;;;13.20;1.00;;;;;;8239467;28;20196;-62
2022/04/18 12:10:23;;;;;;;4.33;2.70;;;13.30;1.00;;;;;;8256120;28;20247;-60
2022/04/18 12:14:29;;;;;;;4.07;2.20;;;13.40;1.00;;;;;;8255704;28;20215;-60
2022/04/18 12:18:30;;;;;;;13.43;6.80;;;13.40;1.00;;;;;;8254822;28;20248;-65
2022/04/18 12:22:31;;;;;;;4.20;3.07;;;13.40;1.00;;;;;;8246729;28;20215;-63
2022/04/18 12:26:36;;;;;;;3.17;2.17;;;13.40;1.00;;;;;;8255544;28;20184;-61
2022/04/18 12:30:37;;;;;;;5.63;3.00;;;13.60;1.00;;;;;;8247033;28;20623;-62
2022/04/18 12:34:42;;;;;;;3.77;2.90;;;13.60;1.00;;;;;;8250900;28;20206;-66
2022/04/18 12:38:47;;;;;;;3.67;2.57;;;13.60;1.00;;;;;;8253479;28;20216;-61
2022/04/18 12:42:52;;;;;;;2.90;2.43;;;13.50;1.00;;;;;;8252902;28;20219;-60
2022/04/18 12:46:54;;;;;;;2.87;2.30;;;13.60;1.00;;;;;;8248192;28;20554;-59
2022/04/18 12:50:56;;;;;;;3.67;2.27;;;13.60;1.00;;;;;;8247529;28;20299;-62
2022/04/18 12:55:07;;;;;;;2.90;2.30;;;13.40;1.00;;;;;;8249555;28;20235;-58
2022/04/18 12:59:09;;;;;;;4.20;2.30;;;13.40;1.00;;;;;;8250208;28;20184;-62
2022/04/18 13:03:09;;;;;;;2.27;1.97;;;13.50;1.00;;;;;;8254000;28;20211;-64
2022/04/18 13:07:12;;;;;;;14.73;8.87;;;13.20;1.00;;;;;;8248522;28;20278;-61
2022/04/18 13:11:14;;;;;;;3.70;2.43;;;13.20;1.00;;;;;;8250206;28;20254;-61
2022/04/18 13:15:24;;;;;;;2.90;2.23;;;13.40;1.00;;;;;;8271489;28;20587;-62
2022/04/18 13:19:25;;;;;;;3.93;2.73;;;13.40;1.00;;;;;;8258902;28;20291;-62
2022/04/18 13:23:26;;;;;;;12.77;7.60;;;13.50;1.00;;;;;;8263813;28;20211;-61
2022/04/18 13:27:28;;;;;;;7.33;4.70;;;13.70;1.00;;;;;;8261609;28;20583;-61
2022/04/18 13:31:29;;;;;;;3.00;2.30;;;13.80;1.00;;;;;;8276976;28;20215;-60
2022/04/18 13:35:30;;;;;;;10.33;5.60;;;13.30;1.00;;;;;;8257755;28;20192;-61
2022/04/18 13:39:31;;;;;;;11.60;6.93;;;13.30;1.00;;;;;;8259280;28;20305;-61
2022/04/18 13:43:32;;;;;;;6.93;4.43;;;13.40;1.00;;;;;;8257610;28;20219;-62
2022/04/18 13:47:34;;;;;;;5.63;3.93;;;13.40;1.00;;;;;;8250098;28;20314;-60
2022/04/18 13:51:35;;;;;;;6.50;4.20;;;13.50;1.00;;;;;;8253480;28;20211;-62
2022/04/18 13:55:36;;;;;;;3.67;2.60;;;13.50;1.00;;;;;;8253961;28;20188;-61
2022/04/18 13:59:37;;;;;;;4.00;2.80;;;13.50;1.00;;;;;;8250993;28;20195;-62
2022/04/18 14:03:39;;;;;;;4.27;2.57;;;13.60;1.00;;;;;;8264372;28;20605;-60
2022/04/18 14:07:40;;;;;;;3.97;3.17;;;13.60;1.00;;;;;;8258961;28;20212;-61
2022/04/18 14:11:40;;;;;;;5.80;3.57;;;13.40;1.00;;;;;;8253262;28;20327;-62
2022/04/18 14:24:20;;;;;;;4.73;2.53;;;13.40;1.00;;;;;;8266976;28;20214;-61
2022/04/18 14:28:21;;;;;;;5.70;3.33;;;13.40;1.00;;;;;;8250157;28;20235;-61
2022/04/18 14:32:22;;;;;;;4.80;3.40;;;13.50;1.00;;;;;;8255615;28;20214;-61
2022/04/18 14:36:23;;;;;;;4.70;3.43;;;13.50;1.00;;;;;;8254215;28;20191;-63
2022/04/18 14:40:24;;;;;;;19.80;11.00;;;13.50;1.00;;;;;;8260205;28;20203;-60
2022/04/18 14:44:25;;;;;;;11.13;7.23;;;13.40;1.00;;;;;;8249915;28;20223;-60
2022/04/18 14:48:26;;;;;;;11.47;7.60;;;13.40;1.00;;;;;;8255821;28;20183;-62
2022/04/18 14:52:27;;;;;;;12.63;7.97;;;13.40;1.00;;;;;;8245495;28;20300;-62
2022/04/18 14:56:29;;;;;;;22.07;10.93;;;13.50;1.00;;;;;;8247967;28;20188;-59
2022/04/18 15:00:31;;;;;;;15.00;8.00;;;13.50;1.00;;;;;;8251201;28;20184;-59
2022/04/18 15:04:33;;;;;;;3.67;3.17;;;13.50;1.00;;;;;;8255874;28;20229;-61
2022/04/18 15:08:34;;;;;;;7.57;4.60;;;13.10;1.00;;;;;;8249826;28;20188;-63
2022/04/18 15:12:35;;;;;;;5.23;4.00;;;13.10;1.00;;;;;;8250188;28;20195;-66
2022/04/18 15:16:36;;;;;;;5.93;4.33;;;13.10;1.00;;;;;;8250569;28;20518;-61
2022/04/18 15:20:37;;;;;;;3.90;3.50;;;13.30;1.00;;;;;;8256914;28;20196;-61
2022/04/18 15:24:40;;;;;;;5.83;4.73;;;13.30;1.00;;;;;;8258127;28;20246;-66
2022/04/18 15:28:41;;;;;;;6.53;4.90;;;13.30;1.00;;;;;;8256860;28;20315;-62
2022/04/18 15:32:42;;;;;;;6.83;4.23;;;13.30;1.00;;;;;;8256594;28;20259;-61
2022/04/18 15:36:42;;;;;;;11.40;5.67;;;13.30;1.00;;;;;;8254542;28;20188;-60
2022/04/18 15:40:43;;;;;;;11.67;6.33;;;13.20;1.00;;;;;;8253716;28;20204;-61
2022/04/18 15:44:44;;;;;;;10.13;6.83;;;13.10;1.00;;;;;;8248959;28;20222;-60
2022/04/18 15:48:45;;;;;;;7.00;4.60;;;13.10;1.00;;;;;;8251892;28;20199;-61
2022/04/18 15:52:46;;;;;;;9.03;5.93;;;13.00;1.00;;;;;;8257235;28;20341;-61
2022/04/18 15:56:48;;;;;;;10.73;6.77;;;13.00;1.00;;;;;;8260479;28;20196;-62
2022/04/18 16:00:50;;;;;;;6.47;4.43;;;12.90;1.00;;;;;;8253381;28;20547;-64
2022/04/18 16:04:50;;;;;;;10.43;5.70;;;12.90;1.00;;;;;;8254739;28;20231;-60
2022/04/18 16:08:51;;;;;;;6.27;3.90;;;12.80;1.00;;;;;;8255944;28;20250;-60
2022/04/18 16:12:52;;;;;;;26.57;12.20;;;12.60;1.00;;;;;;8255111;28;20279;-62
2022/04/18 16:16:53;;;;;;;19.20;10.83;;;12.60;1.00;;;;;;8250344;28;20196;-61
2022/04/18 16:20:53;;;;;;;32.03;14.63;;;12.50;1.00;;;;;;8248278;28;20973;-59
2022/04/18 16:24:54;;;;;;;9.40;6.03;;;12.60;1.00;;;;;;8254884;28;20235;-61
2022/04/18 16:31:49;;;;;;;18.43;10.70;;;12.50;1.00;;;;;;8255415;28;20206;-61
2022/04/18 16:33:16;;;;;;;13.63;7.20;;;12.40;1.00;;;;;;8251468;28;20180;-59
2022/04/18 16:37:17;;;;;;;32.53;21.30;;;12.40;1.00;;;;;;8253782;28;20274;-60
2022/04/18 16:45:48;;;;;;;12.87;6.70;;;12.10;1.00;;;;;;8251592;28;20220;-60
2022/04/18 16:49:49;;;;;;;8.33;5.60;;;12.00;1.00;;;;;;8254587;28;20187;-61
2022/04/18 16:53:50;;;;;;;8.63;6.13;;;11.90;1.00;;;;;;8256288;28;20195;-60
2022/04/18 16:57:51;;;;;;;8.17;5.93;;;11.90;1.00;;;;;;8255559;28;20191;-60
2022/04/18 17:01:52;;;;;;;10.03;6.37;;;11.80;1.00;;;;;;8249456;28;20215;-59
2022/04/18 17:05:53;;;;;;;8.50;6.30;;;11.70;1.00;;;;;;8255422;28;20187;-61
2022/04/18 17:09:54;;;;;;;6.07;4.67;;;11.60;1.00;;;;;;8249329;28;20186;-60
2022/04/18 17:13:55;;;;;;;19.70;10.20;;;11.50;1.00;;;;;;8248034;28;20190;-61
2022/04/18 17:17:56;;;;;;;10.83;6.93;;;11.30;1.00;;;;;;8248255;28;20204;-61
2022/04/18 17:22:01;;;;;;;18.60;11.57;;;11.20;1.00;;;;;;8250848;28;20210;-63
2022/04/18 17:26:04;;;;;;;15.80;9.90;;;11.00;1.00;;;;;;8244602;28;20178;-62
2022/04/18 17:30:05;;;;;;;9.37;6.37;;;10.90;1.00;;;;;;8246698;28;20191;-63
2022/04/18 17:34:06;;;;;;;16.90;10.43;;;10.80;1.00;;;;;;8245610;28;20184;-61
2022/04/18 17:38:07;;;;;;;15.83;10.13;;;10.70;1.00;;;;;;8252181;28;20267;-62
2022/04/18 17:42:08;;;;;;;15.03;10.07;;;10.50;1.00;;;;;;8252175;28;20296;-62
2022/04/18 17:46:09;;;;;;;16.77;10.97;;;10.30;1.00;;;;;;8246580;28;20196;-64
2022/04/18 17:50:10;;;;;;;14.40;8.73;;;10.10;1.00;;;;;;8246089;28;20195;-61
2022/04/18 17:58:31;;;;;;;16.80;10.03;;;9.60;1.00;;;;;;8251624;28;20544;-62
2022/04/18 18:02:32;;;;;;;18.50;12.63;;;9.30;1.00;;;;;;8255823;28;20215;-61
2022/04/18 18:06:33;;;;;;;18.23;12.37;;;9.10;1.00;;;;;;8252784;28;20226;-63
2022/04/18 18:10:34;;;;;;;14.77;11.20;;;8.90;1.00;;;;;;8250023;28;20188;-64
2022/04/18 18:14:35;;;;;;;16.63;10.40;;;8.60;1.00;;;;;;8250005;28;20377;-63
2022/04/18 18:18:37;;;;;;;13.53;8.80;;;8.30;1.00;;;;;;8257854;28;20195;-65
2022/04/18 18:22:41;;;;;;;13.20;7.47;;;8.00;41.50;;;;;;8245165;28;20231;-66
2022/04/18 18:26:44;;;;;;;11.40;7.07;;;7.70;97.60;;;;;;8250293;28;20183;-65
2022/04/18 18:30:46;;;;;;;11.93;6.73;;;7.40;99.90;;;;;;8249666;28;20187;-65
2022/04/18 18:34:47;;;;;;;10.67;6.40;;;7.10;99.90;;;;;;8248873;28;20192;-65
2022/04/18 18:38:47;;;;;;;12.90;6.77;;;6.80;99.90;;;;;;8248533;28;20215;-65
2022/04/18 18:42:48;;;;;;;9.90;5.90;;;6.50;99.90;;;;;;8249008;28;20211;-64
2022/04/18 18:46:50;;;;;;;9.67;6.37;;;6.30;99.90;;;;;;8248424;28;20215;-65
2022/04/18 18:55:11;;;;;;;9.13;5.27;;;5.90;99.90;;;;;;8256492;28;20195;-65
2022/04/18 18:59:14;;;;;;;12.83;6.70;;;5.80;99.90;;;;;;8255963;28;20215;-64
2022/04/18 19:03:16;;;;;;;10.17;6.70;;;5.80;99.90;;;;;;8254538;28;20226;-65
2022/04/18 19:07:17;;;;;;;8.93;5.47;;;5.70;99.90;;;;;;8255739;28;20188;-64
2022/04/18 19:11:19;;;;;;;12.03;5.67;;;5.70;99.90;;;;;;8254673;28;20267;-66
2022/04/18 19:15:20;;;;;;;10.87;6.07;;;5.60;99.90;;;;;;8252548;28;20272;-65
2022/04/18 19:27:59;;;;;;;12.80;7.50;;;5.40;1.00;;;;;;8254418;28;20250;-66
2022/04/18 19:32:00;;;;;;;9.67;5.33;;;5.40;1.00;;;;;;8253963;28;20220;-65
2022/04/18 19:36:02;;;;;;;8.53;4.97;;;5.40;1.00;;;;;;8253791;28;20204;-66
2022/04/18 19:40:04;;;;;;;8.80;4.77;;;5.40;1.00;;;;;;8252925;28;20270;-65
2022/04/18 19:44:04;;;;;;;8.93;5.03;;;5.30;1.00;;;;;;8251898;28;20211;-66
2022/04/18 19:48:06;;;;;;;9.37;5.87;;;5.30;1.00;;;;;;8254520;28;20217;-65
2022/04/18 19:52:07;;;;;;;12.63;6.60;;;5.30;1.00;;;;;;8249631;28;20226;-65
2022/04/18 19:56:08;;;;;;;14.33;7.57;;;5.30;1.00;;;;;;8251475;28;20188;-65
2022/04/18 20:00:11;;;;;;;14.77;8.17;;;5.30;1.00;;;;;;8252504;28;20192;-65
2022/04/18 20:04:14;;;;;;;13.93;7.53;;;5.30;1.00;;;;;;8250028;28;20280;-66
2022/04/18 20:08:17;;;;;;;11.67;6.50;;;5.30;1.00;;;;;;8253910;28;20198;-66
2022/04/18 20:12:18;;;;;;;11.90;6.27;;;5.30;1.00;;;;;;8250471;28;20196;-65
2022/04/18 20:16:19;;;;;;;12.10;6.47;;;5.30;1.00;;;;;;8253448;28;20194;-65
2022/04/18 20:20:20;;;;;;;11.13;5.57;;;5.30;1.00;;;;;;8250906;28;20199;-65
2022/04/18 20:24:20;;;;;;;10.13;5.87;;;5.20;1.00;;;;;;8250730;28;20226;-65
2022/04/18 20:28:21;;;;;;;12.23;6.33;;;5.20;1.00;;;;;;8252468;28;20278;-65
2022/04/18 20:32:22;;;;;;;8.43;5.50;;;5.30;1.00;;;;;;8252891;28;20362;-65
2022/04/18 20:36:23;;;;;;;7.80;5.13;;;5.30;1.00;;;;;;8246624;28;20191;-66
2022/04/18 20:40:24;;;;;;;9.50;5.53;;;5.30;1.00;;;;;;8248414;28;20227;-66
2022/04/18 20:44:25;;;;;;;8.73;5.80;;;5.40;14.90;;;;;;8247220;28;20212;-65
2022/04/18 20:48:30;;;;;;;10.70;5.20;;;5.40;29.00;;;;;;8247202;28;20227;-65
2022/04/18 21:01:10;;;;;;;8.07;4.40;;;5.40;95.70;;;;;;8253816;28;20275;-65
2022/04/18 21:05:10;;;;;;;7.77;4.83;;;5.40;99.90;;;;;;8244333;28;20239;-65
2022/04/18 21:09:12;;;;;;;7.37;4.43;;;5.40;99.90;;;;;;8249541;28;20188;-65
2022/04/18 21:13:14;;;;;;;7.73;4.57;;;5.40;99.90;;;;;;8227109;28;20196;-65
2022/04/18 21:17:16;;;;;;;7.77;4.50;;;5.40;99.90;;;;;;8248940;28;20477;-65
2022/04/18 21:21:19;;;;;;;7.10;4.30;;;5.40;99.90;;;;;;8249230;28;20192;-65
2022/04/18 21:25:21;;;;;;;6.33;4.23;;;5.40;99.90;;;;;;8246726;28;20230;-65
2022/04/18 21:29:22;;;;;;;6.63;4.63;;;5.40;99.90;;;;;;8252323;28;20195;-65
2022/04/18 21:33:23;;;;;;;6.90;3.90;;;5.40;99.90;;;;;;8251525;28;20189;-66
2022/04/18 21:37:24;;;;;;;4.83;3.33;;;5.40;99.90;;;;;;8245387;28;20192;-65
2022/04/18 21:41:24;;;;;;;5.87;4.07;;;5.40;99.90;;;;;;8250002;28;20226;-66
2022/04/18 21:45:25;;;;;;;6.37;4.10;;;5.40;99.90;;;;;;8251249;28;20223;-66
2022/04/18 21:49:26;;;;;;;7.53;4.50;;;5.40;99.90;;;;;;8253321;28;20215;-65
2022/04/18 21:53:28;;;;;;;6.93;4.37;;;5.30;99.90;;;;;;8250551;28;20203;-65
2022/04/18 21:57:29;;;;;;;5.70;4.10;;;5.30;99.90;;;;;;8248412;28;20259;-65
2022/04/18 22:01:30;;;;;;;7.03;4.67;;;5.20;1.00;;;;;;8258484;28;20187;-65
2022/04/18 22:05:31;;;;;;;5.90;4.27;;;5.20;1.00;;;;;;8253922;28;20273;-65
2022/04/18 22:09:32;;;;;;;6.03;3.57;;;5.10;1.00;;;;;;8253565;28;20336;-65
2022/04/18 22:13:33;;;;;;;6.63;3.67;;;5.00;1.00;;;;;;8252418;28;20203;-65
2022/04/18 22:17:34;;;;;;;6.27;3.90;;;5.00;1.00;;;;;;8246890;28;20198;-65